createdAt,value
2023-05-01T00:27:15.393Z,10.86
2023-05-01T00:57:15.666Z,10.37
2023-05-01T01:27:15.858Z,10.01
2023-05-01T01:57:15.780Z,9.69
2023-05-01T02:27:20.306Z,9.41
2023-05-01T03:27:15.310Z,9.39
2023-05-01T03:57:15.945Z,9.35
2023-05-01T04:27:15.546Z,9.46
2023-05-01T04:57:15.402Z,9.55
2023-05-01T05:27:15.301Z,9.78
2023-05-01T05:57:15.532Z,9.99
2023-05-01T06:27:15.094Z,10.02
2023-05-01T06:57:15.275Z,10.18
2023-05-01T07:27:15.212Z,11.02
2023-05-01T07:57:14.934Z,12.34
2023-05-01T08:27:14.956Z,12.39
2023-05-01T08:57:14.950Z,12.51
2023-05-01T09:27:14.618Z,13.17
2023-05-01T09:57:14.886Z,15.23
2023-05-01T10:27:14.849Z,14.45
2023-05-01T10:57:14.746Z,14.07
2023-05-01T11:27:14.784Z,13.98
2023-05-01T11:57:14.827Z,14.95
2023-05-01T12:27:14.415Z,14.6
2023-05-01T12:57:14.946Z,16.08
2023-05-01T13:27:14.081Z,16.04
2023-05-01T13:57:14.340Z,15.88
2023-05-01T14:27:14.517Z,15.67
2023-05-01T14:57:14.480Z,15.2
2023-05-01T15:27:14.285Z,15.99
2023-05-01T15:57:14.316Z,15.86
2023-05-01T16:57:13.947Z,15.49
2023-05-01T17:27:14.577Z,15.51
2023-05-01T18:27:14.031Z,14.91
2023-05-01T18:57:13.992Z,13.07
2023-05-01T19:27:13.716Z,12.94
2023-05-01T19:57:13.708Z,12.04
2023-05-01T20:27:14.233Z,11.91
2023-05-01T20:57:14.672Z,11.15
2023-05-01T21:27:13.791Z,11.19
2023-05-01T21:57:13.923Z,11.28
2023-05-01T22:27:13.787Z,10.92
2023-05-01T22:57:13.750Z,10.75
2023-05-01T23:27:14.007Z,10.29
2023-05-01T23:57:13.321Z,9.51
